sensor_id;sensor_type;location;lat;lon;timestamp;pressure;altitude;pressure_sealevel;temperature;humidity
65880;BME280;52661;51.364;6.054;2022-09-16T00:01:14;100839.63;;;13.15;94.14
65880;BME280;52661;51.364;6.054;2022-09-16T00:03:40;100840.72;;;13.21;93.90
65880;BME280;52661;51.364;6.054;2022-09-16T00:06:05;100848.22;;;13.10;94.17
65880;BME280;52661;51.364;6.054;2022-09-16T00:08:31;100843.16;;;13.12;94.44
65880;BME280;52661;51.364;6.054;2022-09-16T00:11:00;100843.53;;;13.11;94.92
65880;BME280;52661;51.364;6.054;2022-09-16T00:13:25;100838.09;;;13.11;95.17
65880;BME280;52661;51.364;6.054;2022-09-16T00:15:51;100843.97;;;13.06;95.24
65880;BME280;52661;51.364;6.054;2022-09-16T00:18:16;100842.72;;;13.17;94.97
65880;BME280;52661;51.364;6.054;2022-09-16T00:20:46;100842.00;;;13.10;95.27
65880;BME280;52661;51.364;6.054;2022-09-16T00:23:12;100838.50;;;13.09;95.27
65880;BME280;52661;51.364;6.054;2022-09-16T00:25:38;100840.78;;;13.14;94.82
65880;BME280;52661;51.364;6.054;2022-09-16T00:28:03;100830.72;;;13.04;95.18
65880;BME280;52661;51.364;6.054;2022-09-16T00:30:28;100848.22;;;13.10;94.80
65880;BME280;52661;51.364;6.054;2022-09-16T00:32:54;100835.44;;;13.00;95.14
65880;BME280;52661;51.364;6.054;2022-09-16T00:35:19;100834.16;;;13.15;94.50
65880;BME280;52661;51.364;6.054;2022-09-16T00:37:45;100826.31;;;13.21;94.53
65880;BME280;52661;51.364;6.054;2022-09-16T00:40:10;100836.50;;;13.13;93.85
65880;BME280;52661;51.364;6.054;2022-09-16T00:42:39;100840.81;;;13.11;94.35
65880;BME280;52661;51.364;6.054;2022-09-16T00:45:20;100833.81;;;13.06;94.06
65880;BME280;52661;51.364;6.054;2022-09-16T00:52:55;100839.72;;;13.01;94.55
65880;BME280;52661;51.364;6.054;2022-09-16T00:55:26;100831.22;;;12.92;94.91
65880;BME280;52661;51.364;6.054;2022-09-16T00:57:54;100838.25;;;12.90;94.94
65880;BME280;52661;51.364;6.054;2022-09-16T01:00:21;100842.41;;;13.05;95.28
65880;BME280;52661;51.364;6.054;2022-09-16T01:02:48;100832.69;;;13.04;95.22
65880;BME280;52661;51.364;6.054;2022-09-16T01:05:17;100840.88;;;13.00;95.28
65880;BME280;52661;51.364;6.054;2022-09-16T01:07:48;100830.44;;;12.92;95.65
65880;BME280;52661;51.364;6.054;2022-09-16T01:10:17;100836.25;;;12.97;95.96
65880;BME280;52661;51.364;6.054;2022-09-16T01:12:45;100825.78;;;12.89;96.68
65880;BME280;52661;51.364;6.054;2022-09-16T01:15:13;100824.94;;;12.95;96.85
65880;BME280;52661;51.364;6.054;2022-09-16T01:20:57;100826.19;;;12.87;97.02
65880;BME280;52661;51.364;6.054;2022-09-16T01:26:45;100824.59;;;12.93;96.62
65880;BME280;52661;51.364;6.054;2022-09-16T01:32:13;100822.69;;;12.87;96.64
65880;BME280;52661;51.364;6.054;2022-09-16T01:37:19;100817.94;;;12.98;95.74
65880;BME280;52661;51.364;6.054;2022-09-16T01:45:41;100817.03;;;13.15;94.00
65880;BME280;52661;51.364;6.054;2022-09-16T01:50:51;100820.91;;;13.17;93.64
65880;BME280;52661;51.364;6.054;2022-09-16T01:53:41;100817.03;;;13.15;93.34
65880;BME280;52661;51.364;6.054;2022-09-16T01:56:23;100819.03;;;13.11;93.67
65880;BME280;52661;51.364;6.054;2022-09-16T01:59:03;100814.66;;;13.17;93.57
65880;BME280;52661;51.364;6.054;2022-09-16T02:02:31;100810.06;;;13.07;93.50
65880;BME280;52661;51.364;6.054;2022-09-16T02:04:50;100812.78;;;13.07;93.86
65880;BME280;52661;51.364;6.054;2022-09-16T02:07:21;100813.56;;;13.11;93.94
65880;BME280;52661;51.364;6.054;2022-09-16T02:09:51;100816.66;;;13.16;93.86
65880;BME280;52661;51.364;6.054;2022-09-16T02:12:22;100819.78;;;13.11;93.93
65880;BME280;52661;51.364;6.054;2022-09-16T02:14:51;100812.00;;;13.06;93.68
65880;BME280;52661;51.364;6.054;2022-09-16T02:17:22;100806.63;;;12.99;93.66
65880;BME280;52661;51.364;6.054;2022-09-16T02:22:39;100811.34;;;12.92;93.69
65880;BME280;52661;51.364;6.054;2022-09-16T02:25:06;100818.09;;;12.80;94.54
65880;BME280;52661;51.364;6.054;2022-09-16T02:27:34;100810.38;;;12.68;94.99
65880;BME280;52661;51.364;6.054;2022-09-16T02:30:08;100811.53;;;12.67;95.70
65880;BME280;52661;51.364;6.054;2022-09-16T02:32:39;100808.81;;;12.67;95.58
65880;BME280;52661;51.364;6.054;2022-09-16T02:35:09;100804.16;;;12.67;95.47
65880;BME280;52661;51.364;6.054;2022-09-16T02:37:46;100812.31;;;12.67;96.19
65880;BME280;52661;51.364;6.054;2022-09-16T02:40:26;100807.97;;;12.77;95.83
65880;BME280;52661;51.364;6.054;2022-09-16T02:42:55;100811.22;;;12.61;96.07
65880;BME280;52661;51.364;6.054;2022-09-16T02:45:25;100810.47;;;12.54;96.27
65880;BME280;52661;51.364;6.054;2022-09-16T02:48:52;100796.94;;;12.43;97.23
65880;BME280;52661;51.364;6.054;2022-09-16T02:53:42;100800.94;;;12.21;98.95
65880;BME280;52661;51.364;6.054;2022-09-16T02:56:30;100804.06;;;12.19;99.17
65880;BME280;52661;51.364;6.054;2022-09-16T02:58:56;100800.91;;;12.28;98.60
65880;BME280;52661;51.364;6.054;2022-09-16T03:01:22;100802.44;;;12.32;98.58
65880;BME280;52661;51.364;6.054;2022-09-16T03:03:48;100804.78;;;12.27;98.11
65880;BME280;52661;51.364;6.054;2022-09-16T03:08:42;100802.88;;;12.24;98.84
65880;BME280;52661;51.364;6.054;2022-09-16T03:11:39;100811.44;;;12.22;98.71
65880;BME280;52661;51.364;6.054;2022-09-16T03:14:36;100800.22;;;12.10;99.81
65880;BME280;52661;51.364;6.054;2022-09-16T03:23:59;100795.56;;;12.10;99.50
65880;BME280;52661;51.364;6.054;2022-09-16T03:26:07;100787.72;;;12.23;99.20
65880;BME280;52661;51.364;6.054;2022-09-16T03:31:57;100791.69;;;12.08;99.21
65880;BME280;52661;51.364;6.054;2022-09-16T03:34:29;100794.44;;;12.04;99.47
65880;BME280;52661;51.364;6.054;2022-09-16T03:37:00;100799.03;;;12.18;98.57
65880;BME280;52661;51.364;6.054;2022-09-16T03:39:26;100791.25;;;12.16;98.31
65880;BME280;52661;51.364;6.054;2022-09-16T03:41:52;100791.28;;;12.13;98.18
65880;BME280;52661;51.364;6.054;2022-09-16T03:44:19;100795.50;;;12.21;97.72
65880;BME280;52661;51.364;6.054;2022-09-16T03:46:44;100785.00;;;12.23;97.63
65880;BME280;52661;51.364;6.054;2022-09-16T03:49:10;100784.59;;;12.24;97.18
65880;BME280;52661;51.364;6.054;2022-09-16T03:51:36;100792.41;;;12.19;96.38
65880;BME280;52661;51.364;6.054;2022-09-16T03:54:01;100791.22;;;12.20;95.84
65880;BME280;52661;51.364;6.054;2022-09-16T03:56:26;100776.47;;;12.21;95.64
65880;BME280;52661;51.364;6.054;2022-09-16T03:58:52;100786.09;;;12.36;94.86
65880;BME280;52661;51.364;6.054;2022-09-16T04:01:17;100780.69;;;12.29;94.46
65880;BME280;52661;51.364;6.054;2022-09-16T04:03:43;100789.28;;;12.20;95.08
65880;BME280;52661;51.364;6.054;2022-09-16T04:06:08;100779.59;;;12.16;94.95
65880;BME280;52661;51.364;6.054;2022-09-16T04:08:34;100779.22;;;12.14;94.89
65880;BME280;52661;51.364;6.054;2022-09-16T04:11:02;100770.69;;;12.08;95.44
65880;BME280;52661;51.364;6.054;2022-09-16T04:13:30;100762.56;;;12.01;95.23
65880;BME280;52661;51.364;6.054;2022-09-16T04:15:56;100771.44;;;12.16;94.68
65880;BME280;52661;51.364;6.054;2022-09-16T04:18:21;100774.16;;;12.12;94.63
65880;BME280;52661;51.364;6.054;2022-09-16T04:20:47;100777.69;;;12.06;94.57
65880;BME280;52661;51.364;6.054;2022-09-16T04:23:12;100773.84;;;12.03;95.25
65880;BME280;52661;51.364;6.054;2022-09-16T04:25:38;100787.75;;;12.16;94.90
65880;BME280;52661;51.364;6.054;2022-09-16T04:28:05;100786.94;;;12.26;94.19
65880;BME280;52661;51.364;6.054;2022-09-16T04:30:30;100787.66;;;12.33;93.62
65880;BME280;52661;51.364;6.054;2022-09-16T04:32:55;100790.72;;;12.43;93.08
65880;BME280;52661;51.364;6.054;2022-09-16T04:35:22;100790.38;;;12.33;93.55
65880;BME280;52661;51.364;6.054;2022-09-16T04:37:48;100800.91;;;12.31;93.29
65880;BME280;52661;51.364;6.054;2022-09-16T04:40:14;100793.53;;;12.25;93.39
65880;BME280;52661;51.364;6.054;2022-09-16T04:42:39;100794.28;;;12.32;93.77
65880;BME280;52661;51.364;6.054;2022-09-16T04:45:05;100795.03;;;12.37;93.35
65880;BME280;52661;51.364;6.054;2022-09-16T04:47:30;100785.66;;;12.41;93.12
65880;BME280;52661;51.364;6.054;2022-09-16T04:49:56;100784.16;;;12.37;93.49
65880;BME280;52661;51.364;6.054;2022-09-16T04:52:21;100779.91;;;12.28;93.93
65880;BME280;52661;51.364;6.054;2022-09-16T04:54:46;100778.34;;;12.27;94.15
65880;BME280;52661;51.364;6.054;2022-09-16T04:57:12;100774.94;;;12.16;94.66
65880;BME280;52661;51.364;6.054;2022-09-16T04:59:37;100779.28;;;12.03;95.44
65880;BME280;52661;51.364;6.054;2022-09-16T05:02:02;100781.91;;;12.21;95.00
65880;BME280;52661;51.364;6.054;2022-09-16T05:04:28;100790.44;;;12.19;94.96
65880;BME280;52661;51.364;6.054;2022-09-16T05:06:53;100789.31;;;12.13;94.70
65880;BME280;52661;51.364;6.054;2022-09-16T05:09:18;100781.94;;;12.14;94.77
65880;BME280;52661;51.364;6.054;2022-09-16T05:11:47;100782.28;;;12.19;94.92
65880;BME280;52661;51.364;6.054;2022-09-16T05:14:13;100788.91;;;12.22;94.94
65880;BME280;52661;51.364;6.054;2022-09-16T05:16:40;100788.47;;;12.27;94.39
65880;BME280;52661;51.364;6.054;2022-09-16T05:19:05;100792.78;;;12.21;94.84
65880;BME280;52661;51.364;6.054;2022-09-16T05:21:33;100793.13;;;12.26;94.69
65880;BME280;52661;51.364;6.054;2022-09-16T05:24:00;100789.63;;;12.29;94.36
65880;BME280;52661;51.364;6.054;2022-09-16T05:26:29;100786.91;;;12.29;94.49
65880;BME280;52661;51.364;6.054;2022-09-16T05:28:58;100795.84;;;12.30;94.35
65880;BME280;52661;51.364;6.054;2022-09-16T05:31:25;100796.25;;;12.28;94.17
65880;BME280;52661;51.364;6.054;2022-09-16T05:34:19;100804.03;;;12.26;94.59
65880;BME280;52661;51.364;6.054;2022-09-16T05:36:44;100794.34;;;12.22;94.51
65880;BME280;52661;51.364;6.054;2022-09-16T05:39:12;100795.53;;;12.17;94.90
65880;BME280;52661;51.364;6.054;2022-09-16T05:41:39;100786.25;;;12.08;94.96
65880;BME280;52661;51.364;6.054;2022-09-16T05:44:05;100789.75;;;12.05;95.48
65880;BME280;52661;51.364;6.054;2022-09-16T05:46:33;100782.34;;;12.09;95.91
65880;BME280;52661;51.364;6.054;2022-09-16T05:48:59;100782.75;;;12.07;95.86
65880;BME280;52661;51.364;6.054;2022-09-16T05:51:25;100790.09;;;12.17;95.61
65880;BME280;52661;51.364;6.054;2022-09-16T05:53:51;100790.84;;;12.21;95.57
65880;BME280;52661;51.364;6.054;2022-09-16T05:56:18;100793.88;;;12.34;95.14
65880;BME280;52661;51.364;6.054;2022-09-16T05:58:44;100796.53;;;12.45;94.96
65880;BME280;52661;51.364;6.054;2022-09-16T06:01:16;100791.84;;;12.45;94.65
65880;BME280;52661;51.364;6.054;2022-09-16T06:03:43;100794.19;;;12.47;94.53
65880;BME280;52661;51.364;6.054;2022-09-16T06:06:25;100794.56;;;12.45;95.08
65880;BME280;52661;51.364;6.054;2022-09-16T06:08:52;100806.28;;;12.42;95.06
65880;BME280;52661;51.364;6.054;2022-09-16T06:11:18;100807.09;;;12.36;95.36
65880;BME280;52661;51.364;6.054;2022-09-16T06:13:44;100799.66;;;12.43;95.12
65880;BME280;52661;51.364;6.054;2022-09-16T06:16:10;100805.09;;;12.43;95.51
65880;BME280;52661;51.364;6.054;2022-09-16T06:18:36;100805.09;;;12.47;95.18
65880;BME280;52661;51.364;6.054;2022-09-16T06:21:10;100801.47;;;12.64;95.14
65880;BME280;52661;51.364;6.054;2022-09-16T06:23:36;100804.41;;;12.87;93.27
65880;BME280;52661;51.364;6.054;2022-09-16T06:26:17;100802.59;;;13.18;92.55
65880;BME280;52661;51.364;6.054;2022-09-16T06:28:42;100805.41;;;13.07;91.64
65880;BME280;52661;51.364;6.054;2022-09-16T06:31:19;100803.22;;;12.88;92.58
65880;BME280;52661;51.364;6.054;2022-09-16T06:33:45;100808.06;;;12.63;94.01
65880;BME280;52661;51.364;6.054;2022-09-16T06:36:13;100812.22;;;12.81;94.67
65880;BME280;52661;51.364;6.054;2022-09-16T06:38:40;100812.97;;;12.86;93.46
65880;BME280;52661;51.364;6.054;2022-09-16T06:41:07;100821.34;;;13.12;92.72
65880;BME280;52661;51.364;6.054;2022-09-16T06:43:34;100816.31;;;13.04;91.93
65880;BME280;52661;51.364;6.054;2022-09-16T06:46:07;100816.28;;;13.11;91.68
65880;BME280;52661;51.364;6.054;2022-09-16T06:48:44;100811.75;;;12.94;91.26
65880;BME280;52661;51.364;6.054;2022-09-16T06:51:15;100817.41;;;13.17;91.96
65880;BME280;52661;51.364;6.054;2022-09-16T06:53:41;100820.84;;;13.24;91.01
65880;BME280;52661;51.364;6.054;2022-09-16T06:56:09;100816.97;;;13.22;90.57
65880;BME280;52661;51.364;6.054;2022-09-16T06:58:38;100810.19;;;13.41;90.01
65880;BME280;52661;51.364;6.054;2022-09-16T07:01:12;100817.06;;;13.52;89.80
65880;BME280;52661;51.364;6.054;2022-09-16T07:03:40;100816.66;;;13.54;89.13
65880;BME280;52661;51.364;6.054;2022-09-16T07:06:05;100822.25;;;13.40;89.77
65880;BME280;52661;51.364;6.054;2022-09-16T07:08:31;100814.16;;;13.32;90.33
65880;BME280;52661;51.364;6.054;2022-09-16T07:10:59;100814.56;;;13.31;91.02
65880;BME280;52661;51.364;6.054;2022-09-16T07:13:25;100816.94;;;13.25;91.09
65880;BME280;52661;51.364;6.054;2022-09-16T07:15:50;100823.94;;;13.26;91.72
65880;BME280;52661;51.364;6.054;2022-09-16T07:18:16;100819.00;;;13.14;92.22
65880;BME280;52661;51.364;6.054;2022-09-16T07:20:42;100824.44;;;13.14;93.31
65880;BME280;52661;51.364;6.054;2022-09-16T07:23:07;100831.84;;;13.14;92.87
65880;BME280;52661;51.364;6.054;2022-09-16T07:25:33;100831.88;;;13.10;92.56
65880;BME280;52661;51.364;6.054;2022-09-16T07:27:59;100829.13;;;13.10;93.07
65880;BME280;52661;51.364;6.054;2022-09-16T07:30:24;100836.94;;;13.12;93.25
65880;BME280;52661;51.364;6.054;2022-09-16T07:32:49;100839.88;;;13.28;93.02
65880;BME280;52661;51.364;6.054;2022-09-16T07:35:15;100844.78;;;13.47;92.92
65880;BME280;52661;51.364;6.054;2022-09-16T07:37:40;100843.19;;;13.50;91.40
65880;BME280;52661;51.364;6.054;2022-09-16T07:40:05;100847.78;;;13.60;91.09
65880;BME280;52661;51.364;6.054;2022-09-16T07:42:31;100847.47;;;13.51;90.87
65880;BME280;52661;51.364;6.054;2022-09-16T07:44:57;100846.34;;;13.48;91.79
65880;BME280;52661;51.364;6.054;2022-09-16T07:47:22;100849.75;;;13.56;91.80
65880;BME280;52661;51.364;6.054;2022-09-16T07:49:47;100852.47;;;13.59;91.62
65880;BME280;52661;51.364;6.054;2022-09-16T07:52:13;100848.53;;;13.60;91.79
65880;BME280;52661;51.364;6.054;2022-09-16T07:54:40;100851.13;;;13.71;91.92
65880;BME280;52661;51.364;6.054;2022-09-16T07:57:05;100852.03;;;13.61;90.75
65880;BME280;52661;51.364;6.054;2022-09-16T07:59:31;100851.69;;;13.59;90.33
65880;BME280;52661;51.364;6.054;2022-09-16T08:01:56;100852.75;;;13.68;90.98
65880;BME280;52661;51.364;6.054;2022-09-16T08:04:21;100848.75;;;13.76;91.56
65880;BME280;52661;51.364;6.054;2022-09-16T08:06:47;100851.75;;;13.86;91.34
65880;BME280;52661;51.364;6.054;2022-09-16T08:09:12;100853.97;;;13.98;89.91
65880;BME280;52661;51.364;6.054;2022-09-16T08:11:39;100853.50;;;14.06;89.64
65880;BME280;52661;51.364;6.054;2022-09-16T08:14:04;100855.44;;;14.06;88.26
65880;BME280;52661;51.364;6.054;2022-09-16T08:16:30;100847.22;;;14.09;87.50
65880;BME280;52661;51.364;6.054;2022-09-16T08:18:56;100850.28;;;14.11;87.09
65880;BME280;52661;51.364;6.054;2022-09-16T08:21:24;100848.69;;;14.17;87.38
65880;BME280;52661;51.364;6.054;2022-09-16T08:23:50;100852.09;;;14.25;86.99
65880;BME280;52661;51.364;6.054;2022-09-16T08:26:17;100862.91;;;14.36;86.23
65880;BME280;52661;51.364;6.054;2022-09-16T08:28:44;100860.47;;;14.41;86.39
65880;BME280;52661;51.364;6.054;2022-09-16T08:31:11;100865.59;;;14.39;86.38
65880;BME280;52661;51.364;6.054;2022-09-16T08:33:40;100870.53;;;14.48;87.20
65880;BME280;52661;51.364;6.054;2022-09-16T08:36:12;100870.44;;;14.55;85.55
65880;BME280;52661;51.364;6.054;2022-09-16T08:38:39;100871.72;;;14.47;84.42
65880;BME280;52661;51.364;6.054;2022-09-16T08:44:09;100883.50;;;14.97;86.33
65880;BME280;52661;51.364;6.054;2022-09-16T08:46:52;100885.28;;;15.07;83.78
65880;BME280;52661;51.364;6.054;2022-09-16T08:49:31;100878.97;;;15.10;80.60
65880;BME280;52661;51.364;6.054;2022-09-16T08:51:57;100881.38;;;15.08;82.37
65880;BME280;52661;51.364;6.054;2022-09-16T08:54:35;100885.63;;;14.86;81.55
65880;BME280;52661;51.364;6.054;2022-09-16T08:57:04;100884.84;;;14.86;82.78
65880;BME280;52661;51.364;6.054;2022-09-16T09:37:40;100882.97;;;15.52;78.19
65880;BME280;52661;51.364;6.054;2022-09-16T09:40:12;100873.47;;;15.60;76.98
65880;BME280;52661;51.364;6.054;2022-09-16T09:43:16;100872.19;;;15.42;75.79
65880;BME280;52661;51.364;6.054;2022-09-16T09:45:52;100869.88;;;15.63;78.17
65880;BME280;52661;51.364;6.054;2022-09-16T09:48:29;100876.06;;;15.67;77.57
65880;BME280;52661;51.364;6.054;2022-09-16T09:50:59;100879.66;;;15.64;77.56
65880;BME280;52661;51.364;6.054;2022-09-16T09:53:35;100873.06;;;15.62;74.90
65880;BME280;52661;51.364;6.054;2022-09-16T09:58:54;100870.56;;;15.48;76.62
65880;BME280;52661;51.364;6.054;2022-09-16T10:01:21;100872.13;;;15.45;76.16
65880;BME280;52661;51.364;6.054;2022-09-16T10:03:48;100864.00;;;15.42;75.65
65880;BME280;52661;51.364;6.054;2022-09-16T10:06:15;100859.50;;;15.55;74.44
65880;BME280;52661;51.364;6.054;2022-09-16T10:08:50;100854.69;;;15.62;74.00
65880;BME280;52661;51.364;6.054;2022-09-16T10:11:22;100860.22;;;15.59;73.92
65880;BME280;52661;51.364;6.054;2022-09-16T10:13:53;100860.34;;;15.52;70.53
65880;BME280;52661;51.364;6.054;2022-09-16T10:16:21;100857.63;;;15.48;71.54
65880;BME280;52661;51.364;6.054;2022-09-16T10:19:21;100847.00;;;15.54;74.01
65880;BME280;52661;51.364;6.054;2022-09-16T10:21:52;100849.59;;;15.38;72.35
65880;BME280;52661;51.364;6.054;2022-09-16T10:24:38;100856.56;;;15.42;74.49
65880;BME280;52661;51.364;6.054;2022-09-16T10:30:04;100856.84;;;15.71;73.11
65880;BME280;52661;51.364;6.054;2022-09-16T10:32:45;100862.31;;;15.71;74.00
65880;BME280;52661;51.364;6.054;2022-09-16T10:35:20;100861.47;;;15.54;73.58
65880;BME280;52661;51.364;6.054;2022-09-16T10:37:50;100873.88;;;15.36;72.09
65880;BME280;52661;51.364;6.054;2022-09-16T10:40:16;100890.97;;;14.36;71.35
65880;BME280;52661;51.364;6.054;2022-09-16T10:42:46;100906.03;;;13.36;76.03
65880;BME280;52661;51.364;6.054;2022-09-16T10:45:24;100909.72;;;12.39;85.68
65880;BME280;52661;51.364;6.054;2022-09-16T10:47:54;100914.53;;;12.03;89.75
65880;BME280;52661;51.364;6.054;2022-09-16T10:50:20;100913.38;;;11.93;91.63
65880;BME280;52661;51.364;6.054;2022-09-16T10:52:46;100911.81;;;12.03;93.00
65880;BME280;52661;51.364;6.054;2022-09-16T10:57:44;100880.66;;;12.18;92.46
65880;BME280;52661;51.364;6.054;2022-09-16T11:00:19;100882.94;;;12.26;91.99
65880;BME280;52661;51.364;6.054;2022-09-16T11:05:52;100878.09;;;12.66;88.57
65880;BME280;52661;51.364;6.054;2022-09-16T11:08:48;100897.84;;;12.77;89.50
65880;BME280;52661;51.364;6.054;2022-09-16T11:17:13;100907.06;;;13.01;92.57
65880;BME280;52661;51.364;6.054;2022-09-16T11:20:14;100910.13;;;13.10;92.61
65880;BME280;52661;51.364;6.054;2022-09-16T11:23:07;100914.84;;;12.99;92.20
65880;BME280;52661;51.364;6.054;2022-09-16T11:29:03;100913.31;;;13.53;95.40
65880;BME280;52661;51.364;6.054;2022-09-16T11:34:28;100905.44;;;13.07;90.09
65880;BME280;52661;51.364;6.054;2022-09-16T11:39:55;100911.22;;;13.19;92.52
65880;BME280;52661;51.364;6.054;2022-09-16T11:50:51;100916.41;;;12.96;91.78
65880;BME280;52661;51.364;6.054;2022-09-16T11:56:14;100914.84;;;13.50;93.30
65880;BME280;52661;51.364;6.054;2022-09-16T11:58:53;100913.19;;;13.19;90.52
65880;BME280;52661;51.364;6.054;2022-09-16T12:01:34;100905.63;;;13.37;92.26
65880;BME280;52661;51.364;6.054;2022-09-16T12:04:10;100916.75;;;13.57;91.23
65880;BME280;52661;51.364;6.054;2022-09-16T12:06:45;100909.59;;;13.29;90.75
65880;BME280;52661;51.364;6.054;2022-09-16T12:09:19;100905.38;;;13.17;93.19
65880;BME280;52661;51.364;6.054;2022-09-16T12:11:55;100909.34;;;13.02;92.42
65880;BME280;52661;51.364;6.054;2022-09-16T12:14:36;100903.13;;;13.05;91.26
65880;BME280;52661;51.364;6.054;2022-09-16T12:17:13;100901.59;;;13.01;93.27
65880;BME280;52661;51.364;6.054;2022-09-16T12:22:28;100903.50;;;13.11;92.46
65880;BME280;52661;51.364;6.054;2022-09-16T12:25:18;100894.91;;;13.16;91.52
65880;BME280;52661;51.364;6.054;2022-09-16T12:27:51;100891.81;;;13.07;91.10
65880;BME280;52661;51.364;6.054;2022-09-16T12:30:21;100884.75;;;13.20;91.69
65880;BME280;52661;51.364;6.054;2022-09-16T12:33:04;100887.59;;;12.95;90.37
65880;BME280;52661;51.364;6.054;2022-09-16T12:36:04;100897.25;;;13.14;91.62
65880;BME280;52661;51.364;6.054;2022-09-16T12:38:31;100901.22;;;13.91;89.12
65880;BME280;52661;51.364;6.054;2022-09-16T12:43:38;100915.25;;;14.61;87.09
65880;BME280;52661;51.364;6.054;2022-09-16T12:54:36;100945.91;;;14.04;92.16
65880;BME280;52661;51.364;6.054;2022-09-16T12:57:30;100932.81;;;13.89;94.53
65880;BME280;52661;51.364;6.054;2022-09-16T13:00:57;100923.13;;;13.84;94.64
65880;BME280;52661;51.364;6.054;2022-09-16T13:03:04;100929.22;;;13.58;92.87
65880;BME280;52661;51.364;6.054;2022-09-16T13:05:33;100921.66;;;13.28;91.66
65880;BME280;52661;51.364;6.054;2022-09-16T13:08:03;100925.09;;;13.36;91.19
65880;BME280;52661;51.364;6.054;2022-09-16T13:10:31;100917.91;;;13.11;89.36
65880;BME280;52661;51.364;6.054;2022-09-16T13:12:59;100910.34;;;13.33;90.66
65880;BME280;52661;51.364;6.054;2022-09-16T13:15:32;100920.75;;;13.45;90.54
65880;BME280;52661;51.364;6.054;2022-09-16T13:18:22;100915.31;;;13.45;90.97
65880;BME280;52661;51.364;6.054;2022-09-16T13:20:56;100912.25;;;13.36;89.58
65880;BME280;52661;51.364;6.054;2022-09-16T13:23:26;100911.38;;;13.46;90.17
65880;BME280;52661;51.364;6.054;2022-09-16T13:26:01;100910.03;;;13.20;89.20
65880;BME280;52661;51.364;6.054;2022-09-16T13:33:37;100889.59;;;14.21;85.71
65880;BME280;52661;51.364;6.054;2022-09-16T13:41:36;100896.72;;;15.72;78.86
65880;BME280;52661;51.364;6.054;2022-09-16T13:47:29;100893.22;;;15.91;78.36
65880;BME280;52661;51.364;6.054;2022-09-16T13:49:59;100902.84;;;16.19;78.10
65880;BME280;52661;51.364;6.054;2022-09-16T13:52:29;100901.09;;;16.09;77.08
65880;BME280;52661;51.364;6.054;2022-09-16T13:54:58;100903.03;;;15.89;80.10
65880;BME280;52661;51.364;6.054;2022-09-16T14:00:46;100897.00;;;15.08;83.16
65880;BME280;52661;51.364;6.054;2022-09-16T14:03:31;100904.84;;;14.79;83.31
65880;BME280;52661;51.364;6.054;2022-09-16T14:06:17;100902.63;;;14.70;84.54
65880;BME280;52661;51.364;6.054;2022-09-16T14:11:34;100913.19;;;14.38;87.33
65880;BME280;52661;51.364;6.054;2022-09-16T14:14:08;100913.06;;;14.11;88.55
65880;BME280;52661;51.364;6.054;2022-09-16T14:16:39;100911.69;;;13.96;89.54
65880;BME280;52661;51.364;6.054;2022-09-16T14:24:34;100907.81;;;13.94;87.97
65880;BME280;52661;51.364;6.054;2022-09-16T14:27:00;100910.25;;;13.85;87.52
65880;BME280;52661;51.364;6.054;2022-09-16T14:29:25;100903.72;;;13.75;87.70
65880;BME280;52661;51.364;6.054;2022-09-16T14:31:53;100911.31;;;13.53;88.60
65880;BME280;52661;51.364;6.054;2022-09-16T14:36:48;100911.75;;;13.89;88.23
65880;BME280;52661;51.364;6.054;2022-09-16T14:39:15;100915.63;;;13.92;87.07
65880;BME280;52661;51.364;6.054;2022-09-16T14:41:55;100907.19;;;13.79;87.05
65880;BME280;52661;51.364;6.054;2022-09-16T14:44:29;100913.53;;;13.69;88.05
65880;BME280;52661;51.364;6.054;2022-09-16T14:47:01;100915.75;;;13.81;87.93
65880;BME280;52661;51.364;6.054;2022-09-16T14:49:29;100911.94;;;14.09;87.60
65880;BME280;52661;51.364;6.054;2022-09-16T14:51:56;100909.13;;;14.16;86.77
65880;BME280;52661;51.364;6.054;2022-09-16T14:54:22;100907.72;;;14.38;86.80
65880;BME280;52661;51.364;6.054;2022-09-16T14:57:04;100912.50;;;14.61;85.66
65880;BME280;52661;51.364;6.054;2022-09-16T14:59:32;100913.59;;;14.67;85.64
65880;BME280;52661;51.364;6.054;2022-09-16T15:02:04;100909.53;;;14.78;85.55
65880;BME280;52661;51.364;6.054;2022-09-16T15:04:33;100898.53;;;15.09;86.10
65880;BME280;52661;51.364;6.054;2022-09-16T15:07:08;100890.47;;;14.98;82.47
65880;BME280;52661;51.364;6.054;2022-09-16T15:09:46;100893.69;;;14.93;81.82
65880;BME280;52661;51.364;6.054;2022-09-16T15:12:29;100895.94;;;14.98;82.18
65880;BME280;52661;51.364;6.054;2022-09-16T15:14:56;100901.84;;;14.97;80.91
65880;BME280;52661;51.364;6.054;2022-09-16T15:17:25;100889.06;;;14.90;80.29
65880;BME280;52661;51.364;6.054;2022-09-16T15:19:57;100892.50;;;14.94;79.63
65880;BME280;52661;51.364;6.054;2022-09-16T15:22:24;100892.34;;;14.78;79.27
65880;BME280;52661;51.364;6.054;2022-09-16T15:24:52;100884.84;;;14.86;80.31
65880;BME280;52661;51.364;6.054;2022-09-16T15:27:24;100886.78;;;14.85;80.74
65880;BME280;52661;51.364;6.054;2022-09-16T15:29:54;100885.03;;;14.71;79.99
65880;BME280;52661;51.364;6.054;2022-09-16T15:32:21;100881.44;;;14.78;79.22
65880;BME280;52661;51.364;6.054;2022-09-16T15:35:18;100883.31;;;14.81;79.14
65880;BME280;52661;51.364;6.054;2022-09-16T15:37:44;100875.13;;;14.81;78.69
65880;BME280;52661;51.364;6.054;2022-09-16T15:43:10;100867.91;;;14.94;77.51
65880;BME280;52661;51.364;6.054;2022-09-16T15:45:36;100868.38;;;14.89;77.65
65880;BME280;52661;51.364;6.054;2022-09-16T15:48:15;100865.38;;;15.07;77.58
65880;BME280;52661;51.364;6.054;2022-09-16T15:50:54;100875.81;;;14.89;78.17
65880;BME280;52661;51.364;6.054;2022-09-16T15:55:59;100883.22;;;14.88;78.20
65880;BME280;52661;51.364;6.054;2022-09-16T16:03:54;100882.97;;;14.79;80.30